UUMO

Details ICAO UUMO
Name Ostafievo
Region Russia
Timezone Europe/Moscow (UTC+3.0)
Plans Departing 16
Arriving 8
Stats Elevation 561 ft / 171 m (AMSL)
Location 55.507626° 37.503877°
Runways 1
Magnetic Variation 10.978° E
Sunrise 2017-12-18 05:55:49 UTC / 2017-12-18 08:55:49 Local
Sunset 2017-12-18 12:59:59 UTC / 2017-12-18 15:59:59 Local
Advertisement - Login to hide

Runways

ID Width Length Bearing (true) Bearing (mag) Surface Threshold Offset Overrun Length
08 157 ft / 48 m 6,733 ft / 2,052 m 84.79° 73.81° Concrete 0 ft / 0 m 164 ft / 50 m
26 157 ft / 48 m 6,733 ft / 2,052 m 264.81° 253.83° Concrete 394 ft / 120 m 164 ft / 50 m

Approach Navaids

Runway Type Ident Frequency Range Bearing (true) Bearing (mag) Slope Elevation
26 Localiser IPS 108.30 MHz 50 nm / 93 km 264.62° 253.65° - 561 ft / 171 m (AMSL)
26 Glidescope IPS 108.30 MHz 50 nm / 93 km 256.00° 245.02° 3.10° 561 ft / 171 m (AMSL)

Map

Weather


0- 5 10 15 20 25 30 35+ Temperature / ° C

Clouds and Precipitation
Forecast for 2017-12-18 18:00 UTC. Updated 2 hours ago

Ground ~20,000 ft ~40,000 ft Winds

METAR

UUMO 181430Z 06006MPS 4000 -SHSN BKN009 BKN026CB 00/M01 Q1021 R08/990245 TEMPO 1500 SHSN BKN010CB RMK QFE751/1001

TAF

Not found

Frequencies

Recorded 127.60 MHz Ostafievo ATIS
Approach 124.00 MHz Nebesniy Podhod
Tower 119.20 MHz Ostafievo Tower
Warning: Do not use this data for real-world aviation or navigation. No guarantee of current accuracy is given.